createdAt,value
2023-03-28T00:00:17.448Z,2.07
2023-03-28T00:02:43.774Z,2.53
2023-03-28T00:05:11.353Z,2.33
2023-03-28T00:07:38.535Z,2.60
2023-03-28T00:10:05.812Z,1.57
2023-03-28T00:12:32.216Z,2.30
2023-03-28T00:14:58.658Z,1.83
2023-03-28T00:17:25.175Z,2.07
2023-03-28T00:19:53.516Z,3.10
2023-03-28T00:22:20.868Z,2.40
2023-03-28T00:24:48.842Z,2.33
2023-03-28T00:27:15.961Z,2.20
2023-03-28T00:29:42.361Z,2.23
2023-03-28T00:32:08.828Z,2.00
2023-03-28T00:34:35.306Z,2.20
2023-03-28T00:37:04.703Z,2.30
2023-03-28T00:39:31.314Z,1.93
2023-03-28T00:42:01.422Z,1.67
2023-03-28T00:45:07.430Z,2.20
2023-03-28T00:47:49.488Z,1.83
2023-03-28T00:50:21.059Z,2.27
2023-03-28T00:52:54.136Z,1.70
2023-03-28T00:55:23.510Z,2.37
2023-03-28T00:57:51.296Z,2.40
2023-03-28T01:00:19.270Z,2.17
2023-03-28T01:03:00.899Z,1.93
2023-03-28T01:05:28.471Z,2.33
2023-03-28T01:07:58.227Z,2.50
2023-03-28T01:10:24.956Z,2.27
2023-03-28T01:12:52.089Z,2.80
2023-03-28T01:15:18.407Z,2.67
2023-03-28T01:17:46.488Z,2.13
2023-03-28T01:20:26.664Z,2.70
2023-03-28T01:23:08.301Z,2.23
2023-03-28T01:25:54.361Z,2.73
2023-03-28T01:28:39.454Z,2.63
2023-03-28T01:31:11.963Z,3.92
2023-03-28T01:33:53.675Z,2.50
2023-03-28T01:36:47.071Z,2.80
2023-03-28T01:39:21.741Z,3.37
2023-03-28T01:41:53.997Z,1.63
2023-03-28T01:44:20.269Z,2.40
2023-03-28T01:46:53.473Z,2.33
2023-03-28T01:49:33.145Z,2.40
2023-03-28T01:52:08.229Z,3.03
2023-03-28T01:57:10.691Z,2.63
2023-03-28T01:59:47.955Z,2.87
2023-03-28T02:02:19.508Z,2.70
2023-03-28T02:04:47.002Z,2.50
2023-03-28T02:07:13.765Z,1.80
2023-03-28T02:09:42.376Z,2.57
2023-03-28T02:12:12.692Z,2.97
2023-03-28T02:14:41.190Z,2.27
2023-03-28T02:17:15.449Z,2.70
2023-03-28T02:19:55.211Z,2.65
2023-03-28T02:22:27.716Z,2.70
2023-03-28T02:24:54.124Z,2.10
2023-03-28T02:27:21.034Z,2.73
2023-03-28T02:29:49.348Z,2.93
2023-03-28T02:32:21.876Z,2.67
2023-03-28T02:34:49.276Z,2.73
2023-03-28T02:37:23.971Z,2.37
2023-03-28T02:40:02.197Z,2.78
2023-03-28T02:42:37.390Z,2.93
2023-03-28T02:45:09.582Z,2.90
2023-03-28T02:47:38.436Z,2.10
2023-03-28T02:50:25.490Z,3.27
2023-03-28T02:53:01.020Z,1.93
2023-03-28T02:55:35.591Z,3.10
2023-03-28T02:58:04.701Z,2.33
2023-03-28T03:00:31.232Z,2.10
2023-03-28T03:02:57.634Z,2.20
2023-03-28T03:05:24.073Z,2.50
2023-03-28T03:07:50.395Z,2.93
2023-03-28T03:10:17.298Z,2.43
2023-03-28T03:12:43.717Z,2.30
2023-03-28T03:15:11.718Z,1.90
2023-03-28T03:17:38.256Z,2.60
2023-03-28T03:20:07.632Z,2.30
2023-03-28T03:22:34.504Z,2.47
2023-03-28T03:25:06.512Z,2.40
2023-03-28T03:27:33.435Z,3.47
2023-03-28T03:29:59.763Z,2.50
2023-03-28T03:32:26.120Z,2.23
2023-03-28T03:34:52.463Z,2.13
2023-03-28T03:37:18.857Z,2.23
2023-03-28T03:39:45.765Z,2.80
2023-03-28T03:42:12.151Z,3.93
2023-03-28T03:44:38.794Z,3.10
2023-03-28T03:47:05.382Z,2.40
2023-03-28T03:49:31.698Z,2.33
2023-03-28T03:51:57.991Z,3.67
2023-03-28T03:54:24.263Z,2.57
2023-03-28T03:56:50.740Z,3.37
2023-03-28T03:59:17.267Z,3.50
2023-03-28T04:01:44.126Z,2.10
2023-03-28T04:04:10.945Z,2.20
2023-03-28T04:06:40.554Z,2.90
2023-03-28T04:09:07.828Z,2.00
2023-03-28T04:11:34.547Z,2.30
2023-03-28T04:14:01.003Z,2.20
2023-03-28T04:16:27.585Z,2.73
2023-03-28T04:19:07.009Z,3.53
2023-03-28T04:21:35.178Z,3.33
2023-03-28T04:24:01.847Z,3.00
2023-03-28T04:26:28.836Z,1.83
2023-03-28T04:28:56.009Z,2.67
2023-03-28T04:31:29.656Z,2.63
2023-03-28T04:33:56.466Z,2.17
2023-03-28T04:36:25.711Z,2.93
2023-03-28T04:38:52.209Z,2.77
2023-03-28T04:41:18.605Z,2.80
2023-03-28T04:43:44.923Z,1.80
2023-03-28T04:46:11.339Z,2.83
2023-03-28T04:48:37.721Z,2.47
2023-03-28T04:51:04.163Z,7.27
2023-03-28T04:53:30.709Z,6.90
2023-03-28T04:55:57.051Z,7.33
2023-03-28T04:58:23.795Z,7.70
2023-03-28T05:00:50.596Z,9.07
2023-03-28T05:03:21.280Z,8.37
2023-03-28T05:05:48.566Z,6.93
2023-03-28T05:08:16.125Z,9.87
2023-03-28T05:10:43.932Z,9.03
2023-03-28T05:13:10.311Z,8.33
2023-03-28T05:15:36.608Z,7.93
2023-03-28T05:18:03.191Z,7.10
2023-03-28T05:20:29.813Z,6.77
2023-03-28T05:22:57.249Z,8.17
2023-03-28T05:25:23.827Z,3.53
2023-03-28T05:27:51.300Z,2.97
2023-03-28T05:30:17.919Z,3.40
2023-03-28T05:32:44.441Z,3.70
2023-03-28T05:35:11.740Z,3.40
2023-03-28T05:37:40.422Z,3.50
2023-03-28T05:40:10.580Z,4.00
2023-03-28T05:42:37.474Z,4.07
2023-03-28T05:45:04.523Z,3.83
2023-03-28T05:47:31.430Z,3.17
2023-03-28T05:49:57.846Z,4.13
2023-03-28T05:52:24.245Z,3.43
2023-03-28T05:54:51.451Z,3.57
2023-03-28T05:57:19.004Z,4.70
2023-03-28T05:59:46.331Z,3.73
2023-03-28T06:02:13.274Z,4.40
2023-03-28T06:04:39.889Z,3.90
2023-03-28T06:07:06.425Z,3.73
2023-03-28T06:09:34.884Z,3.47
2023-03-28T06:12:01.897Z,3.63
2023-03-28T06:14:28.915Z,4.33
2023-03-28T06:16:55.591Z,4.07
2023-03-28T06:19:22.184Z,3.30
2023-03-28T06:21:48.613Z,3.33
2023-03-28T06:24:15.013Z,3.70
2023-03-28T06:26:41.457Z,3.60
2023-03-28T06:29:07.873Z,4.20
2023-03-28T06:31:34.556Z,4.17
2023-03-28T06:34:01.166Z,4.33
2023-03-28T06:36:27.472Z,4.93
2023-03-28T06:38:54.860Z,4.53
2023-03-28T06:41:21.208Z,4.23
2023-03-28T06:43:47.598Z,4.97
2023-03-28T06:46:16.139Z,4.50
2023-03-28T06:48:42.651Z,4.30
2023-03-28T06:51:09.040Z,4.47
2023-03-28T06:53:38.034Z,5.93
2023-03-28T06:56:04.733Z,9.80
2023-03-28T06:58:31.584Z,9.33
2023-03-28T07:01:01.292Z,9.20
2023-03-28T07:03:30.062Z,9.53
2023-03-28T07:05:56.777Z,9.17
2023-03-28T07:08:23.284Z,9.90
2023-03-28T07:10:49.603Z,9.13
2023-03-28T07:13:16.127Z,8.93
2023-03-28T07:15:42.440Z,8.77
2023-03-28T07:18:11.631Z,8.17
2023-03-28T07:20:39.461Z,6.27
2023-03-28T07:23:06.532Z,8.40
2023-03-28T07:25:32.948Z,9.43
2023-03-28T07:27:59.313Z,6.20
2023-03-28T07:30:26.891Z,7.40
2023-03-28T07:33:02.663Z,7.00
2023-03-28T07:35:41.396Z,6.15
2023-03-28T07:38:08.107Z,7.00
2023-03-28T07:40:34.480Z,6.80
2023-03-28T07:43:01.010Z,6.53
2023-03-28T07:45:27.336Z,7.63
2023-03-28T07:47:53.651Z,5.70
2023-03-28T07:50:20.080Z,6.60
2023-03-28T07:52:46.558Z,5.47
2023-03-28T07:55:13.794Z,5.70
2023-03-28T07:57:40.403Z,6.70
2023-03-28T08:00:13.018Z,5.70
2023-03-28T08:02:44.811Z,5.00
2023-03-28T08:05:11.441Z,5.33
2023-03-28T08:07:37.753Z,5.80
2023-03-28T08:10:04.270Z,5.43
2023-03-28T08:12:30.570Z,5.47
2023-03-28T08:14:56.924Z,4.60
2023-03-28T08:17:23.456Z,4.40
2023-03-28T08:19:49.813Z,4.17
2023-03-28T08:22:17.223Z,5.90
2023-03-28T08:24:43.838Z,3.33
2023-03-28T08:27:10.155Z,2.60
2023-03-28T08:29:36.501Z,2.80
2023-03-28T08:32:05.211Z,3.80
2023-03-28T08:34:31.820Z,4.47
2023-03-28T08:36:59.137Z,4.10
2023-03-28T08:39:25.879Z,4.33
2023-03-28T08:41:52.375Z,4.00
2023-03-28T08:44:37.651Z,4.63
2023-03-28T08:47:06.111Z,3.70
2023-03-28T08:49:36.721Z,5.17
2023-03-28T08:52:05.423Z,3.77
2023-03-28T08:54:43.659Z,4.00
2023-03-28T08:57:13.716Z,3.83
2023-03-28T08:59:47.503Z,3.60
2023-03-28T09:02:21.579Z,4.13
2023-03-28T09:04:48.230Z,4.10
2023-03-28T09:07:35.104Z,3.23
2023-03-28T09:10:20.007Z,4.03
2023-03-28T09:12:51.816Z,3.78
2023-03-28T09:15:22.893Z,4.23
2023-03-28T09:17:58.452Z,3.37
2023-03-28T09:20:29.988Z,3.70
2023-03-28T09:23:15.485Z,3.30
2023-03-28T09:25:41.784Z,3.15
2023-03-28T09:28:13.920Z,2.77
2023-03-28T09:30:48.370Z,3.23
2023-03-28T09:33:16.325Z,3.55
2023-03-28T09:35:43.221Z,2.97
2023-03-28T09:38:21.053Z,2.90
2023-03-28T09:40:47.800Z,3.40
2023-03-28T09:43:23.861Z,4.00
2023-03-28T09:46:00.996Z,3.00
2023-03-28T09:48:28.904Z,3.67
2023-03-28T09:50:56.403Z,4.03
2023-03-28T09:53:27.426Z,4.33
2023-03-28T09:56:03.969Z,4.03
2023-03-28T09:58:46.809Z,2.90
2023-03-28T10:01:33.467Z,2.97
2023-03-28T10:04:00.338Z,5.87
2023-03-28T10:06:31.509Z,2.40
2023-03-28T10:09:13.386Z,2.83
2023-03-28T10:11:56.533Z,2.90
2023-03-28T10:14:39.474Z,2.33
2023-03-28T10:17:26.062Z,2.77
2023-03-28T10:19:53.928Z,12.07
2023-03-28T10:22:28.011Z,3.40
2023-03-28T10:24:54.574Z,4.03
2023-03-28T10:27:26.763Z,3.43
2023-03-28T10:29:54.540Z,2.83
2023-03-28T10:32:28.140Z,2.30
2023-03-28T10:35:02.157Z,2.60
2023-03-28T10:37:30.463Z,2.50
2023-03-28T10:40:01.115Z,3.30
2023-03-28T10:42:27.487Z,2.00
2023-03-28T10:45:01.282Z,2.23
2023-03-28T10:47:29.330Z,2.90
2023-03-28T10:49:56.186Z,3.45
2023-03-28T10:52:25.130Z,2.78
2023-03-28T10:55:06.951Z,2.55
2023-03-28T10:57:43.871Z,3.05
2023-03-28T11:00:22.603Z,3.88
2023-03-28T11:02:54.680Z,2.63
2023-03-28T11:05:28.789Z,2.38
2023-03-28T11:08:14.046Z,3.08
2023-03-28T11:11:04.158Z,3.05
2023-03-28T11:13:42.824Z,2.55
2023-03-28T11:16:27.418Z,2.65
2023-03-28T11:18:56.832Z,3.47
2023-03-28T11:21:28.264Z,3.40
2023-03-28T11:23:54.633Z,3.17
2023-03-28T11:26:25.423Z,3.15
2023-03-28T11:28:54.743Z,3.00
2023-03-28T11:31:24.349Z,5.85
2023-03-28T11:34:11.645Z,3.20
2023-03-28T11:36:42.484Z,3.40
2023-03-28T11:39:14.833Z,3.08
2023-03-28T11:41:42.126Z,3.13
2023-03-28T11:44:16.991Z,2.80
2023-03-28T11:46:46.882Z,3.17
2023-03-28T11:49:13.187Z,2.88
2023-03-28T11:51:46.927Z,2.78
2023-03-28T11:54:16.592Z,3.53
2023-03-28T11:57:06.812Z,4.55
2023-03-28T11:59:38.973Z,3.55
2023-03-28T12:02:23.911Z,3.30
2023-03-28T12:04:55.093Z,3.13
2023-03-28T12:07:21.368Z,3.35
2023-03-28T12:09:57.496Z,3.53
2023-03-28T12:12:36.045Z,2.70
2023-03-28T12:15:05.732Z,2.75
2023-03-28T12:17:37.490Z,3.05
2023-03-28T12:20:08.070Z,3.55
2023-03-28T12:22:40.267Z,3.38
2023-03-28T12:25:06.649Z,4.05
2023-03-28T12:27:42.080Z,3.30
2023-03-28T12:30:20.583Z,3.20
2023-03-28T12:32:51.736Z,2.88
2023-03-28T12:35:42.221Z,2.75
2023-03-28T12:38:17.632Z,3.03
2023-03-28T12:40:55.050Z,2.92
2023-03-28T12:43:24.440Z,3.45
2023-03-28T12:45:53.798Z,3.08
2023-03-28T12:48:32.355Z,3.25
2023-03-28T12:51:01.685Z,2.90
2023-03-28T12:53:31.254Z,3.55
2023-03-28T12:55:57.639Z,3.63
2023-03-28T12:58:26.098Z,2.55
2023-03-28T13:01:07.501Z,3.35
2023-03-28T13:03:52.896Z,3.38
2023-03-28T13:06:48.547Z,2.90
2023-03-28T13:09:27.965Z,3.20
2023-03-28T13:12:03.286Z,2.72
2023-03-28T13:16:56.902Z,3.08
2023-03-28T13:19:37.200Z,2.85
2023-03-28T13:22:04.068Z,2.83
2023-03-28T13:24:31.659Z,3.10
2023-03-28T13:26:57.955Z,3.55
2023-03-28T13:29:41.791Z,4.22
2023-03-28T13:32:12.229Z,3.17
2023-03-28T13:34:38.587Z,3.17
2023-03-28T13:37:24.802Z,3.60
2023-03-28T13:39:52.242Z,2.92
2023-03-28T13:42:32.020Z,3.63
2023-03-28T13:45:00.490Z,2.45
2023-03-28T13:47:30.730Z,2.65
2023-03-28T13:50:02.734Z,3.47
2023-03-28T13:52:29.150Z,2.90
2023-03-28T13:55:14.603Z,2.88
2023-03-28T13:57:41.505Z,2.55
2023-03-28T14:00:13.635Z,3.33
2023-03-28T14:02:47.010Z,3.55
2023-03-28T14:05:21.639Z,2.72
2023-03-28T14:07:48.358Z,3.05
2023-03-28T14:10:33.433Z,2.95
2023-03-28T14:13:04.406Z,3.50
2023-03-28T14:15:33.752Z,2.90
2023-03-28T14:18:01.366Z,2.83
2023-03-28T14:20:28.236Z,3.00
2023-03-28T14:23:00.263Z,2.67
2023-03-28T14:25:28.584Z,3.00
2023-03-28T14:27:56.643Z,2.88
2023-03-28T14:30:22.966Z,3.95
2023-03-28T14:33:00.007Z,3.22
2023-03-28T14:35:28.507Z,3.15
2023-03-28T14:37:59.084Z,2.95
2023-03-28T14:40:25.701Z,2.70
2023-03-28T14:42:56.366Z,2.58
2023-03-28T14:45:25.755Z,3.25
2023-03-28T14:47:52.396Z,2.38
2023-03-28T14:50:20.276Z,3.95
2023-03-28T14:52:47.049Z,2.42
2023-03-28T14:55:23.715Z,2.80
2023-03-28T14:57:53.589Z,3.72
2023-03-28T15:00:24.380Z,3.47
2023-03-28T15:02:51.859Z,3.13
2023-03-28T15:05:22.317Z,3.03
2023-03-28T15:07:56.754Z,2.38
2023-03-28T15:10:24.348Z,3.17
2023-03-28T15:12:56.692Z,3.15
2023-03-28T15:15:26.945Z,3.33
2023-03-28T15:17:55.196Z,2.10
2023-03-28T15:20:23.632Z,2.53
2023-03-28T15:22:52.610Z,2.63
2023-03-28T15:25:21.715Z,3.55
2023-03-28T15:27:51.013Z,4.22
2023-03-28T15:30:19.265Z,5.50
2023-03-28T15:32:46.202Z,3.72
2023-03-28T15:35:30.321Z,3.65
2023-03-28T15:38:01.270Z,3.65
2023-03-28T15:40:29.417Z,4.15
2023-03-28T15:42:56.285Z,3.53
2023-03-28T15:45:24.588Z,3.33
2023-03-28T15:47:55.383Z,3.28
2023-03-28T15:50:43.828Z,2.70
2023-03-28T15:53:13.599Z,2.78
2023-03-28T15:55:41.169Z,3.03
2023-03-28T15:58:10.078Z,3.20
2023-03-28T16:00:37.999Z,4.57
2023-03-28T16:03:16.338Z,3.92
2023-03-28T16:05:48.579Z,4.15
2023-03-28T16:08:30.981Z,4.00
2023-03-28T16:11:01.141Z,4.20
2023-03-28T16:13:28.598Z,3.83
2023-03-28T16:15:55.198Z,3.88
2023-03-28T16:18:22.058Z,3.60
2023-03-28T16:20:48.426Z,3.92
2023-03-28T16:23:14.811Z,2.90
2023-03-28T16:25:41.685Z,5.53
2023-03-28T16:28:09.178Z,5.25
2023-03-28T16:30:37.388Z,4.25
2023-03-28T16:33:05.921Z,3.42
2023-03-28T16:35:33.739Z,4.18
2023-03-28T16:38:01.088Z,4.68
2023-03-28T16:40:28.001Z,4.32
2023-03-28T16:42:54.473Z,4.43
2023-03-28T16:45:21.041Z,3.40
2023-03-28T16:47:47.672Z,4.50
2023-03-28T16:50:14.579Z,3.35
2023-03-28T16:52:41.079Z,4.00
2023-03-28T16:55:08.643Z,3.40
2023-03-28T16:57:36.163Z,3.15
2023-03-28T17:00:04.731Z,4.03
2023-03-28T17:02:31.807Z,3.80
2023-03-28T17:04:58.193Z,3.90
2023-03-28T17:07:24.602Z,3.65
2023-03-28T17:09:50.922Z,3.70
2023-03-28T17:12:18.270Z,3.42
2023-03-28T17:14:46.002Z,2.83
2023-03-28T17:17:13.194Z,3.53
2023-03-28T17:19:39.587Z,2.60
2023-03-28T17:22:06.040Z,4.00
2023-03-28T17:24:32.916Z,2.70
2023-03-28T17:26:59.301Z,2.97
2023-03-28T17:29:25.766Z,2.92
2023-03-28T17:31:52.827Z,2.38
2023-03-28T17:34:19.253Z,3.40
2023-03-28T17:36:45.797Z,2.90
2023-03-28T17:39:12.676Z,2.50
2023-03-28T17:41:39.115Z,2.67
2023-03-28T17:44:06.522Z,2.80
2023-03-28T17:46:33.415Z,3.00
2023-03-28T17:48:59.933Z,3.20
2023-03-28T17:51:26.420Z,3.38
2023-03-28T17:53:53.281Z,2.92
2023-03-28T17:56:19.949Z,3.55
2023-03-28T17:58:46.893Z,3.20
2023-03-28T18:01:18.354Z,2.95
2023-03-28T18:03:46.132Z,3.20
2023-03-28T18:06:13.418Z,3.13
2023-03-28T18:08:40.148Z,3.15
2023-03-28T18:11:08.471Z,3.22
2023-03-28T18:13:35.781Z,2.90
2023-03-28T18:16:04.534Z,2.28
2023-03-28T18:18:31.396Z,3.20
2023-03-28T18:20:57.944Z,3.47
2023-03-28T18:23:24.743Z,4.30
2023-03-28T18:25:51.783Z,3.83
2023-03-28T18:28:21.995Z,2.63
2023-03-28T18:30:48.335Z,2.70
2023-03-28T18:33:14.710Z,2.72
2023-03-28T18:35:41.196Z,3.33
2023-03-28T18:38:07.543Z,4.05
2023-03-28T18:40:33.831Z,3.37
2023-03-28T18:43:00.257Z,4.00
2023-03-28T18:45:26.655Z,4.20
2023-03-28T18:47:53.574Z,4.38
2023-03-28T18:50:20.038Z,5.10
2023-03-28T18:52:46.450Z,3.23
2023-03-28T18:55:13.521Z,3.38
2023-03-28T18:57:40.426Z,3.60
2023-03-28T19:00:19.094Z,4.00
2023-03-28T19:02:46.250Z,3.17
2023-03-28T19:05:13.266Z,4.05
2023-03-28T19:07:39.659Z,2.53
2023-03-28T19:10:07.329Z,3.87
2023-03-28T19:12:36.763Z,3.33
2023-03-28T19:15:03.821Z,3.00
2023-03-28T19:17:30.550Z,3.10
2023-03-28T19:19:56.974Z,3.77
2023-03-28T19:22:23.360Z,2.40
2023-03-28T19:24:49.765Z,4.57
2023-03-28T19:27:17.376Z,3.53
2023-03-28T19:29:43.765Z,3.63
2023-03-28T19:32:10.094Z,6.93
2023-03-28T19:34:36.435Z,4.67
2023-03-28T19:37:02.811Z,3.60
2023-03-28T19:39:29.179Z,3.10
2023-03-28T19:41:55.972Z,3.33
2023-03-28T19:44:22.337Z,3.70
2023-03-28T19:46:48.717Z,2.77
2023-03-28T19:49:15.782Z,2.50
2023-03-28T19:51:42.169Z,2.13
2023-03-28T19:54:08.467Z,2.97
2023-03-28T19:56:35.225Z,2.70
2023-03-28T19:59:01.540Z,3.13
2023-03-28T20:01:27.889Z,3.97
2023-03-28T20:03:54.253Z,2.40
2023-03-28T20:06:21.281Z,2.60
2023-03-28T20:08:47.672Z,2.80
2023-03-28T20:11:14.525Z,3.00
2023-03-28T20:13:41.283Z,3.83
2023-03-28T20:16:08.787Z,2.47
2023-03-28T20:18:36.193Z,2.60
2023-03-28T20:21:04.255Z,2.60
2023-03-28T20:23:32.548Z,2.50
2023-03-28T20:26:01.300Z,2.90
2023-03-28T20:28:31.870Z,2.70
2023-03-28T20:30:58.434Z,2.50
2023-03-28T20:33:24.986Z,3.23
2023-03-28T20:35:52.827Z,3.43
2023-03-28T20:38:19.326Z,3.97
2023-03-28T20:40:45.660Z,2.50
2023-03-28T20:43:19.720Z,2.93
2023-03-28T20:45:49.826Z,2.43
2023-03-28T20:48:16.775Z,2.83
2023-03-28T20:50:46.015Z,2.43
2023-03-28T20:53:12.383Z,2.77
2023-03-28T20:55:38.857Z,2.47
2023-03-28T20:58:05.227Z,2.93
2023-03-28T21:00:35.793Z,2.50
2023-03-28T21:03:03.432Z,3.73
2023-03-28T21:05:30.286Z,2.63
2023-03-28T21:07:58.239Z,2.60
2023-03-28T21:10:24.669Z,2.70
2023-03-28T21:12:51.534Z,3.33
2023-03-28T21:15:18.149Z,3.03
2023-03-28T21:17:47.629Z,2.97
2023-03-28T21:20:13.968Z,3.10
2023-03-28T21:22:40.509Z,10.17
2023-03-28T21:25:07.476Z,4.30
2023-03-28T21:27:34.677Z,3.13
2023-03-28T21:30:04.194Z,2.80
2023-03-28T21:32:33.070Z,2.33
2023-03-28T21:34:59.914Z,2.03
2023-03-28T21:37:26.369Z,2.03
2023-03-28T21:39:52.812Z,3.17
2023-03-28T21:42:19.129Z,2.03
2023-03-28T21:44:45.472Z,2.37
2023-03-28T21:47:11.850Z,2.93
2023-03-28T21:49:38.158Z,2.87
2023-03-28T21:52:04.631Z,2.10
2023-03-28T21:54:30.975Z,2.60
2023-03-28T21:56:58.421Z,2.70
2023-03-28T21:59:26.279Z,2.07
2023-03-28T22:01:52.709Z,3.03
2023-03-28T22:04:19.075Z,2.73
2023-03-28T22:06:45.470Z,2.50
2023-03-28T22:09:12.157Z,2.83
2023-03-28T22:11:39.315Z,2.70
2023-03-28T22:14:06.324Z,2.70
2023-03-28T22:16:34.556Z,2.13
2023-03-28T22:19:01.636Z,3.10
2023-03-28T22:21:30.162Z,2.20
2023-03-28T22:23:57.165Z,2.73
2023-03-28T22:26:27.182Z,2.53
2023-03-28T22:28:54.679Z,2.37
2023-03-28T22:31:22.179Z,2.33
2023-03-28T22:33:48.627Z,2.50
2023-03-28T22:36:15.005Z,2.97
2023-03-28T22:38:41.787Z,2.53
2023-03-28T22:41:08.171Z,2.60
2023-03-28T22:43:35.467Z,3.33
2023-03-28T22:46:01.884Z,3.20
2023-03-28T22:48:30.207Z,2.40
2023-03-28T22:50:58.208Z,2.77
2023-03-28T22:53:26.991Z,3.27
2023-03-28T22:55:53.759Z,2.20
2023-03-28T22:58:21.962Z,2.50
2023-03-28T23:00:48.998Z,3.43
2023-03-28T23:03:15.911Z,3.03
2023-03-28T23:05:42.589Z,3.10
2023-03-28T23:08:09.964Z,2.90
2023-03-28T23:10:36.280Z,3.10
2023-03-28T23:13:02.609Z,2.57
2023-03-28T23:15:28.939Z,2.70
2023-03-28T23:17:55.873Z,2.00
2023-03-28T23:20:22.722Z,2.80
2023-03-28T23:22:49.073Z,3.33
2023-03-28T23:25:16.899Z,2.90
2023-03-28T23:27:43.237Z,3.00
2023-03-28T23:30:10.707Z,2.43
2023-03-28T23:32:37.413Z,2.93
2023-03-28T23:35:04.257Z,2.57
2023-03-28T23:37:30.560Z,3.13
2023-03-28T23:39:57.438Z,2.73
2023-03-28T23:42:24.444Z,2.47
2023-03-28T23:44:51.720Z,2.87
2023-03-28T23:47:20.298Z,2.60
2023-03-28T23:49:47.012Z,3.33
2023-03-28T23:52:13.764Z,3.10
2023-03-28T23:54:40.195Z,3.00
2023-03-28T23:57:07.184Z,2.77
2023-03-28T23:59:33.904Z,3.10
